createdAt,value
2022-08-15T13:27:35.942Z,6.67
2022-08-15T13:30:19.710Z,7.30
2022-08-15T13:32:47.543Z,7.00
2022-08-15T13:35:17.903Z,5.80
2022-08-15T13:37:59.589Z,6.70
2022-08-15T13:40:31.112Z,6.40
2022-08-15T13:43:11.697Z,6.57
2022-08-15T13:45:56.249Z,5.97
2022-08-15T13:48:37.252Z,6.43
2022-08-15T13:51:13.289Z,6.87
2022-08-15T13:56:32.560Z,8.10
2022-08-15T13:59:01.277Z,6.55
2022-08-15T14:01:34.523Z,6.13
2022-08-15T14:04:06.511Z,6.63
2022-08-15T14:06:35.927Z,6.50
2022-08-15T14:09:17.728Z,6.15
2022-08-15T14:11:57.576Z,5.63
2022-08-15T14:14:36.631Z,5.72
2022-08-15T14:17:08.539Z,5.93
2022-08-15T14:20:02.813Z,6.10
2022-08-15T14:22:27.192Z,5.80
2022-08-15T14:25:15.283Z,6.00
2022-08-15T14:27:50.998Z,5.78
2022-08-15T14:30:19.620Z,5.40
2022-08-15T14:35:35.019Z,5.35
2022-08-15T14:38:12.418Z,7.05
2022-08-15T14:40:43.005Z,5.43
2022-08-15T14:43:17.601Z,5.40
2022-08-15T14:46:35.679Z,5.13
2022-08-15T14:48:47.169Z,5.60
2022-08-15T14:52:12.028Z,5.50
2022-08-15T14:54:43.588Z,5.85
2022-08-15T14:57:08.065Z,5.50
2022-08-15T14:59:56.831Z,5.07
2022-08-15T15:02:28.244Z,5.35
2022-08-15T15:04:57.867Z,5.55
2022-08-15T15:07:54.728Z,5.22
2022-08-15T15:10:25.183Z,5.47
2022-08-15T15:12:59.048Z,5.55
2022-08-15T15:15:28.078Z,5.22
2022-08-15T15:20:57.651Z,5.00
2022-08-15T15:23:26.503Z,5.50
2022-08-15T15:25:54.093Z,5.47
2022-08-15T15:28:41.746Z,5.15
2022-08-15T15:31:12.057Z,5.05
2022-08-15T15:33:43.296Z,5.53
2022-08-15T15:36:28.863Z,5.65
2022-08-15T15:39:02.364Z,5.65
2022-08-15T15:41:45.942Z,5.60
2022-08-15T15:44:23.161Z,5.70
2022-08-15T15:46:54.349Z,6.00
2022-08-15T15:49:35.861Z,5.93
2022-08-15T15:52:09.800Z,5.43
2022-08-15T15:54:52.581Z,5.75
2022-08-15T15:57:21.265Z,6.20
2022-08-15T15:59:58.093Z,6.20
2022-08-15T16:02:43.610Z,5.78
2022-08-15T16:05:19.790Z,6.07
2022-08-15T16:07:55.822Z,5.90
2022-08-15T16:10:33.306Z,5.85
2022-08-15T16:13:06.338Z,5.75
2022-08-15T16:15:55.107Z,6.28
2022-08-15T16:18:34.917Z,6.50
2022-08-15T16:21:30.981Z,5.82
2022-08-15T16:24:07.127Z,6.03
2022-08-15T16:26:53.824Z,5.63
2022-08-15T16:29:33.476Z,5.80
2022-08-15T16:32:32.248Z,6.50
2022-08-15T16:35:07.837Z,5.60
2022-08-15T16:37:42.570Z,6.22
2022-08-15T16:40:24.018Z,6.03
2022-08-15T16:43:05.618Z,6.65
2022-08-15T16:46:00.584Z,6.47
2022-08-15T16:48:59.039Z,5.93
2022-08-15T16:51:55.718Z,6.10
2022-08-15T16:54:47.658Z,5.95
2022-08-15T16:57:27.569Z,6.80
2022-08-15T17:00:18.699Z,6.13
2022-08-15T17:03:10.483Z,7.82
2022-08-15T17:06:06.019Z,6.55
2022-08-15T17:08:50.338Z,6.22
2022-08-15T17:11:41.133Z,6.90
2022-08-15T17:14:47.977Z,6.32
2022-08-15T17:17:31.432Z,6.40
2022-08-15T17:20:01.010Z,7.00
2022-08-15T17:22:36.211Z,7.07
2022-08-15T17:25:36.514Z,6.80
2022-08-15T17:28:34.575Z,6.50
2022-08-15T17:31:09.901Z,7.28
2022-08-15T17:34:02.866Z,6.82
2022-08-15T17:36:50.410Z,6.00
2022-08-15T17:39:34.498Z,6.25
2022-08-15T17:42:01.849Z,5.65
2022-08-15T17:44:58.455Z,6.20
2022-08-15T17:47:35.369Z,6.13
2022-08-15T17:50:59.072Z,5.78
2022-08-15T17:53:30.628Z,6.20
2022-08-15T17:56:03.710Z,6.00
2022-08-15T17:58:34.454Z,6.35
2022-08-15T18:01:02.268Z,5.53
2022-08-15T18:03:29.831Z,5.93
2022-08-15T18:06:04.533Z,5.70
2022-08-15T18:08:36.588Z,6.32
2022-08-15T18:11:04.584Z,5.75
2022-08-15T18:13:39.452Z,5.07
2022-08-15T18:16:18.693Z,5.10
2022-08-15T18:18:47.328Z,5.40
2022-08-15T18:21:54.915Z,5.18
2022-08-15T18:24:52.327Z,4.60
2022-08-15T18:27:33.801Z,5.07
2022-08-15T18:30:16.850Z,5.10
2022-08-15T18:32:52.440Z,5.15
2022-08-15T18:35:27.636Z,5.32
2022-08-15T18:38:04.601Z,5.07
2022-08-15T18:40:58.415Z,5.53
2022-08-15T18:43:42.517Z,5.65
2022-08-15T18:46:14.344Z,5.07
2022-08-15T18:48:59.527Z,5.30
2022-08-15T18:51:33.647Z,5.90
2022-08-15T18:54:49.377Z,5.43
2022-08-15T18:57:43.590Z,5.50
2022-08-15T19:00:16.444Z,5.47
2022-08-15T19:02:44.363Z,5.47
2022-08-15T19:05:23.775Z,5.78
2022-08-15T19:07:54.989Z,5.40
2022-08-15T19:10:25.467Z,5.82
2022-08-15T19:13:15.923Z,5.80
2022-08-15T19:15:54.514Z,5.57
2022-08-15T19:18:35.172Z,6.00
2022-08-15T19:21:10.740Z,5.80
2022-08-15T19:23:47.762Z,5.60
2022-08-15T19:26:31.271Z,5.60
2022-08-15T19:29:33.423Z,5.88
2022-08-15T19:35:16.325Z,5.82
2022-08-15T19:38:14.091Z,6.47
2022-08-15T19:41:20.415Z,5.78
2022-08-15T19:44:07.352Z,5.88
2022-08-15T19:46:56.549Z,5.85
2022-08-15T19:50:05.420Z,6.13
2022-08-15T19:52:49.113Z,5.88
2022-08-15T19:55:43.138Z,5.90
2022-08-15T19:58:31.799Z,5.15
2022-08-15T20:01:07.340Z,5.85
2022-08-15T20:03:43.906Z,5.75
2022-08-15T20:06:27.465Z,5.97
2022-08-15T20:09:04.794Z,5.53
2022-08-15T20:12:06.734Z,5.65
2022-08-15T20:14:46.334Z,5.55
2022-08-15T20:17:59.235Z,5.68
2022-08-15T20:20:59.301Z,5.18
2022-08-15T20:24:00.082Z,5.18
2022-08-15T20:26:54.098Z,4.78
2022-08-15T20:29:43.950Z,4.78
2022-08-15T20:32:45.810Z,5.15
2022-08-15T20:35:17.084Z,5.28
2022-08-15T20:37:53.502Z,4.82
2022-08-15T20:40:26.362Z,5.20
2022-08-15T20:42:59.820Z,5.57
2022-08-15T20:45:33.836Z,5.07
2022-08-15T20:48:44.005Z,5.53
2022-08-15T20:51:09.091Z,5.55
2022-08-15T20:53:41.011Z,5.70
2022-08-15T20:56:08.803Z,6.25
2022-08-15T20:59:01.922Z,5.82
2022-08-15T21:01:33.387Z,5.50
2022-08-15T21:04:22.259Z,5.75
2022-08-15T21:06:59.480Z,6.00
2022-08-15T21:09:43.905Z,5.80
2022-08-15T21:12:30.722Z,5.25
2022-08-15T21:16:03.269Z,6.43
2022-08-15T21:18:45.178Z,5.78
2022-08-15T21:21:26.349Z,6.40
2022-08-15T21:24:03.284Z,5.97
2022-08-15T21:26:40.469Z,5.47
2022-08-15T21:29:27.885Z,5.50
2022-08-15T21:31:58.206Z,5.32
2022-08-15T21:34:36.508Z,5.53
2022-08-15T21:37:12.244Z,5.63
2022-08-15T21:40:31.730Z,5.63
2022-08-15T21:42:59.154Z,5.30
2022-08-15T21:45:42.865Z,5.72
2022-08-15T21:48:35.246Z,6.10
2022-08-15T21:51:35.930Z,5.35
2022-08-15T21:54:25.465Z,5.93
2022-08-15T21:57:00.595Z,5.50
2022-08-15T22:00:19.163Z,5.57
2022-08-15T22:03:14.263Z,5.20
2022-08-15T22:05:52.217Z,5.78
2022-08-15T22:08:57.812Z,5.85
2022-08-15T22:11:40.619Z,6.25
2022-08-15T22:14:08.244Z,5.53
2022-08-15T22:17:01.334Z,6.22
2022-08-15T22:19:28.655Z,6.32
2022-08-15T22:22:08.699Z,5.90
2022-08-15T22:24:47.995Z,6.50
2022-08-15T22:27:21.434Z,6.50
2022-08-15T22:29:50.839Z,6.28
2022-08-15T22:32:31.236Z,6.68
2022-08-15T22:34:59.827Z,7.00
2022-08-15T22:37:34.550Z,6.35
2022-08-15T22:40:17.064Z,6.20
2022-08-15T22:43:02.087Z,5.50
2022-08-15T22:45:47.425Z,5.35
2022-08-15T22:48:24.795Z,5.90
2022-08-15T22:51:01.616Z,5.70
2022-08-15T22:53:38.297Z,5.80
2022-08-15T22:56:45.152Z,5.88
2022-08-15T22:58:58.886Z,5.95
2022-08-15T23:01:32.663Z,5.15
2022-08-15T23:04:40.431Z,5.75
2022-08-15T23:07:21.205Z,5.60
2022-08-15T23:09:56.997Z,6.00
2022-08-15T23:12:32.363Z,6.13
2022-08-15T23:15:07.511Z,5.10
2022-08-15T23:17:45.672Z,5.28
2022-08-15T23:20:38.733Z,5.93
2022-08-15T23:23:11.007Z,5.68
2022-08-15T23:28:29.961Z,5.72
2022-08-15T23:31:09.437Z,5.53
2022-08-15T23:33:54.716Z,5.60
2022-08-15T23:36:59.693Z,5.57
2022-08-15T23:39:46.259Z,6.10
2022-08-15T23:44:42.590Z,6.13
2022-08-15T23:47:13.267Z,5.70
2022-08-15T23:49:41.658Z,6.00
2022-08-15T23:52:18.103Z,5.78
2022-08-15T23:54:46.075Z,5.97
2022-08-15T23:57:15.660Z,6.75
2022-08-15T23:59:55.877Z,6.18
